createdAt,value
2018-11-06T00:00:49.544Z,84.30
2018-11-06T00:03:28.293Z,84.30
2018-11-06T00:05:56.449Z,84.60
2018-11-06T00:08:24.546Z,84.30
2018-11-06T00:10:52.706Z,84.30
2018-11-06T00:13:20.895Z,83.90
2018-11-06T00:15:49.061Z,83.20
2018-11-06T00:18:17.261Z,83.60
2018-11-06T00:20:45.453Z,84.20
2018-11-06T00:23:13.524Z,84.20
2018-11-06T00:25:41.669Z,84.00
2018-11-06T00:28:09.871Z,84.40
2018-11-06T00:30:37.997Z,83.30
2018-11-06T00:33:06.226Z,83.10
2018-11-06T00:35:34.333Z,83.40
2018-11-06T00:38:02.505Z,82.40
2018-11-06T00:40:31.085Z,82.10
2018-11-06T00:42:59.231Z,82.00
2018-11-06T00:45:27.346Z,81.60
2018-11-06T00:47:55.471Z,82.70
2018-11-06T00:50:23.617Z,82.40
2018-11-06T00:52:51.649Z,81.60
2018-11-06T00:55:19.797Z,80.50
2018-11-06T00:57:47.919Z,80.60
2018-11-06T01:00:17.220Z,80.60
2018-11-06T01:02:45.968Z,83.40
2018-11-06T01:05:14.908Z,84.50
2018-11-06T01:07:43.950Z,82.60
2018-11-06T01:10:12.247Z,83.10
2018-11-06T01:12:40.650Z,83.60
2018-11-06T01:15:11.158Z,83.40
2018-11-06T01:17:39.482Z,82.80
2018-11-06T01:20:11.164Z,82.30
2018-11-06T01:22:40.282Z,82.70
2018-11-06T01:25:09.092Z,82.80
2018-11-06T01:27:37.569Z,83.20
2018-11-06T01:30:10.670Z,83.10
2018-11-06T01:32:38.932Z,83.60
2018-11-06T01:35:08.524Z,83.60
2018-11-06T01:37:36.655Z,83.50
2018-11-06T01:40:06.707Z,83.30
2018-11-06T01:42:34.826Z,82.90
2018-11-06T01:45:05.187Z,83.50
2018-11-06T01:47:33.370Z,83.90
2018-11-06T01:50:01.482Z,83.50
2018-11-06T01:52:29.638Z,84.50
2018-11-06T01:54:57.818Z,84.40
2018-11-06T01:57:26.018Z,83.60
2018-11-06T01:59:55.433Z,83.70
2018-11-06T02:02:23.666Z,84.60
2018-11-06T02:04:51.751Z,84.30
2018-11-06T02:07:19.927Z,84.00
2018-11-06T02:09:49.019Z,83.90
2018-11-06T02:12:17.176Z,83.90
2018-11-06T02:14:45.608Z,83.20
2018-11-06T02:17:14.584Z,83.90
2018-11-06T02:19:42.792Z,84.60
2018-11-06T02:22:10.944Z,84.50
2018-11-06T02:24:39.058Z,84.60
2018-11-06T02:27:07.181Z,84.50
2018-11-06T02:29:35.294Z,84.00
2018-11-06T02:32:03.588Z,84.00
2018-11-06T02:34:31.794Z,83.40
2018-11-06T02:36:59.981Z,83.90
2018-11-06T02:39:28.148Z,82.90
2018-11-06T02:41:56.287Z,83.10
2018-11-06T02:44:24.486Z,83.30
2018-11-06T02:46:52.763Z,84.00
2018-11-06T02:49:20.934Z,84.10
2018-11-06T02:51:49.286Z,83.30
2018-11-06T02:54:17.419Z,83.10
2018-11-06T02:56:45.495Z,83.60
2018-11-06T02:59:13.570Z,84.50
2018-11-06T03:01:41.824Z,85.30
2018-11-06T03:04:09.987Z,85.40
2018-11-06T03:06:38.058Z,85.40
2018-11-06T03:09:07.129Z,85.30
2018-11-06T03:11:35.332Z,86.20
2018-11-06T03:14:03.638Z,85.40
2018-11-06T03:16:31.794Z,86.40
2018-11-06T03:19:00.021Z,87.00
2018-11-06T03:21:28.245Z,86.40
2018-11-06T03:23:56.440Z,86.00
2018-11-06T03:26:24.603Z,85.50
2018-11-06T03:28:52.851Z,86.10
2018-11-06T03:31:21.130Z,85.90
2018-11-06T03:33:49.290Z,85.50
2018-11-06T03:36:17.393Z,85.50
2018-11-06T03:38:45.547Z,85.10
2018-11-06T03:41:13.731Z,84.30
2018-11-06T03:43:41.871Z,84.80
2018-11-06T03:46:09.995Z,85.20
2018-11-06T03:48:38.111Z,84.20
2018-11-06T03:51:06.828Z,84.20
2018-11-06T03:53:34.966Z,84.20
2018-11-06T03:56:03.194Z,84.10
2018-11-06T03:58:31.405Z,84.30
2018-11-06T04:00:59.555Z,85.20
2018-11-06T04:03:27.792Z,85.10
2018-11-06T04:05:55.915Z,85.90
2018-11-06T04:08:24.071Z,85.20
2018-11-06T04:10:52.157Z,84.80
2018-11-06T04:13:20.338Z,85.20
2018-11-06T04:15:48.520Z,84.20
2018-11-06T04:18:16.644Z,85.30
2018-11-06T04:20:44.813Z,85.00
2018-11-06T04:23:13.080Z,84.60
2018-11-06T04:25:41.303Z,85.10
2018-11-06T04:28:09.571Z,85.80
2018-11-06T04:30:37.703Z,85.80
2018-11-06T04:33:05.815Z,85.50
2018-11-06T04:35:34.055Z,86.70
2018-11-06T04:38:02.300Z,86.20
2018-11-06T04:40:30.534Z,85.60
2018-11-06T04:43:04.260Z,86.50
2018-11-06T04:45:32.394Z,86.10
2018-11-06T04:48:00.596Z,86.30
2018-11-06T04:50:28.748Z,86.90
2018-11-06T04:52:56.843Z,86.30
2018-11-06T04:55:25.013Z,84.50
2018-11-06T04:57:53.200Z,84.80
2018-11-06T05:00:21.364Z,85.60
2018-11-06T05:02:49.618Z,85.40
2018-11-06T05:05:17.776Z,85.10
2018-11-06T05:07:45.915Z,85.40
2018-11-06T05:10:14.589Z,86.30
2018-11-06T05:12:43.189Z,86.00
2018-11-06T05:15:12.727Z,86.10
2018-11-06T05:17:40.821Z,85.70
2018-11-06T05:20:12.260Z,85.80
2018-11-06T05:22:40.598Z,86.20
2018-11-06T05:25:09.088Z,86.60
2018-11-06T05:27:37.631Z,84.50
2018-11-06T05:30:06.886Z,84.80
2018-11-06T05:32:35.129Z,85.70
2018-11-06T05:35:03.720Z,86.40
2018-11-06T05:37:31.991Z,86.20
2018-11-06T05:40:49.605Z,86.50
2018-11-06T05:43:17.809Z,85.60
2018-11-06T05:45:47.661Z,84.40
2018-11-06T05:48:16.311Z,86.00
2018-11-06T05:50:44.534Z,85.00
2018-11-06T05:53:12.951Z,85.00
2018-11-06T05:55:41.269Z,84.60
2018-11-06T05:58:10.174Z,84.20
2018-11-06T06:00:38.488Z,85.00
2018-11-06T06:06:06.127Z,85.20
2018-11-06T06:08:34.610Z,85.20
2018-11-06T06:11:02.918Z,85.50
2018-11-06T06:13:31.477Z,86.30
2018-11-06T06:15:59.599Z,85.60
2018-11-06T06:18:27.785Z,84.70
2018-11-06T06:20:55.929Z,85.50
2018-11-06T06:23:24.804Z,85.00
2018-11-06T06:25:53.512Z,85.70
2018-11-06T06:28:21.749Z,86.50
2018-11-06T06:30:51.496Z,85.20
2018-11-06T06:33:19.799Z,86.70
2018-11-06T06:35:47.950Z,86.60
2018-11-06T06:38:16.211Z,86.90
2018-11-06T06:40:45.021Z,86.10
2018-11-06T06:43:13.125Z,85.20
2018-11-06T06:45:41.355Z,84.10
2018-11-06T06:48:09.521Z,83.30
2018-11-06T06:50:37.692Z,83.20
2018-11-06T06:53:05.975Z,84.00
2018-11-06T06:55:34.143Z,83.70
2018-11-06T06:58:02.345Z,84.30
2018-11-06T07:00:30.501Z,84.20
2018-11-06T07:02:58.700Z,83.50
2018-11-06T07:05:26.905Z,82.20
2018-11-06T07:07:55.565Z,82.00
2018-11-06T07:10:23.687Z,81.20
2018-11-06T07:12:51.924Z,80.00
2018-11-06T07:17:53.899Z,79.40
2018-11-06T07:20:25.002Z,78.20
2018-11-06T07:22:53.175Z,77.90
2018-11-06T07:25:21.384Z,75.20
2018-11-06T07:27:49.586Z,75.30
2018-11-06T07:30:19.253Z,73.60
2018-11-06T07:32:47.526Z,72.90
2018-11-06T07:35:16.415Z,71.40
2018-11-06T07:37:45.007Z,71.20
2018-11-06T07:40:14.347Z,70.50
2018-11-06T07:42:42.536Z,70.10
2018-11-06T07:45:16.155Z,70.60
2018-11-06T07:47:44.420Z,69.80
2018-11-06T07:50:13.930Z,68.90
2018-11-06T07:52:42.298Z,66.40
2018-11-06T07:55:15.391Z,64.30
2018-11-06T07:57:43.578Z,63.60
2018-11-06T08:00:18.613Z,63.80
2018-11-06T08:02:47.727Z,64.30
2018-11-06T08:05:16.315Z,64.70
2018-11-06T08:07:45.333Z,65.10
2018-11-06T08:10:14.180Z,64.90
2018-11-06T08:12:48.815Z,65.40
2018-11-06T08:15:17.094Z,65.70
2018-11-06T08:17:45.775Z,65.40
2018-11-06T08:20:14.096Z,66.10
2018-11-06T08:22:47.263Z,65.60
2018-11-06T08:25:16.138Z,65.70
2018-11-06T08:27:44.860Z,66.50
2018-11-06T08:30:13.353Z,65.90
2018-11-06T08:32:42.134Z,65.90
2018-11-06T08:35:15.960Z,66.20
2018-11-06T08:37:44.150Z,66.60
2018-11-06T08:40:14.653Z,67.40
2018-11-06T08:42:42.802Z,67.10
2018-11-06T08:45:12.999Z,67.70
2018-11-06T08:47:42.174Z,67.30
2018-11-06T08:50:12.866Z,67.40
2018-11-06T08:52:41.374Z,67.70
2018-11-06T08:55:10.727Z,67.70
2018-11-06T08:57:39.263Z,68.40
2018-11-06T09:00:10.935Z,68.40
2018-11-06T09:02:39.441Z,68.30
2018-11-06T09:05:09.832Z,67.90
2018-11-06T09:07:38.302Z,68.40
2018-11-06T09:10:08.075Z,69.70
2018-11-06T09:12:37.946Z,69.60
2018-11-06T09:15:08.267Z,70.00
2018-11-06T09:17:37.117Z,69.20
2018-11-06T09:20:06.125Z,69.00
2018-11-06T09:22:35.006Z,67.80
2018-11-06T09:25:03.418Z,67.20
2018-11-06T09:27:31.609Z,66.80
2018-11-06T09:29:59.782Z,66.10
2018-11-06T09:32:28.186Z,65.90
2018-11-06T09:34:56.335Z,66.00
2018-11-06T09:37:24.556Z,65.60
2018-11-06T09:39:52.690Z,65.60
2018-11-06T09:42:21.048Z,64.90
2018-11-06T09:44:55.527Z,64.50
2018-11-06T09:47:23.653Z,63.30
2018-11-06T09:49:51.865Z,62.60
2018-11-06T09:52:34.043Z,62.60
2018-11-06T09:55:02.264Z,62.60
2018-11-06T09:57:31.255Z,62.70
2018-11-06T09:59:59.469Z,62.80
2018-11-06T10:02:28.049Z,62.80
2018-11-06T10:04:56.929Z,62.20
2018-11-06T10:07:25.324Z,61.20
2018-11-06T10:09:53.309Z,61.10
2018-11-06T10:12:50.558Z,61.40
2018-11-06T10:15:21.590Z,60.40
2018-11-06T10:17:50.692Z,58.80
2018-11-06T10:20:19.777Z,58.80
2018-11-06T10:22:52.967Z,58.30
2018-11-06T10:25:21.143Z,58.30
2018-11-06T10:27:49.312Z,58.00
2018-11-06T10:30:18.737Z,57.80
2018-11-06T10:32:46.984Z,56.20
2018-11-06T10:35:15.108Z,55.50
2018-11-06T10:37:43.311Z,55.00
2018-11-06T10:40:17.933Z,53.90
2018-11-06T10:42:46.581Z,54.00
2018-11-06T10:45:15.128Z,54.30
2018-11-06T10:47:43.309Z,54.00
2018-11-06T10:50:12.624Z,53.30
2018-11-06T10:52:41.213Z,52.20
2018-11-06T10:55:09.784Z,51.50
2018-11-06T10:57:39.123Z,51.30
2018-11-06T11:00:17.074Z,50.20
2018-11-06T11:02:51.039Z,47.70
2018-11-06T11:05:20.294Z,45.80
2018-11-06T11:07:48.536Z,45.80
2018-11-06T11:10:16.754Z,43.80
2018-11-06T11:12:54.305Z,42.80
2018-11-06T11:15:22.476Z,42.00
2018-11-06T11:17:52.048Z,40.80
2018-11-06T11:20:20.889Z,40.90
2018-11-06T11:22:54.760Z,39.90
2018-11-06T11:25:22.962Z,39.30
2018-11-06T11:27:51.152Z,39.60
2018-11-06T11:30:19.241Z,39.20
2018-11-06T11:32:48.030Z,38.10
2018-11-06T11:35:16.197Z,36.70
2018-11-06T11:37:44.516Z,36.70
2018-11-06T11:40:13.799Z,37.00
2018-11-06T11:42:42.140Z,37.00
2018-11-06T11:45:11.672Z,37.00
2018-11-06T11:47:40.135Z,36.30
2018-11-06T11:50:10.408Z,35.70
2018-11-06T11:52:39.230Z,35.10
2018-11-06T11:55:07.789Z,35.10
2018-11-06T11:57:35.935Z,35.10
2018-11-06T12:00:05.070Z,34.90
2018-11-06T12:02:33.339Z,35.00
2018-11-06T12:05:01.485Z,35.80
2018-11-06T12:07:29.688Z,36.30
2018-11-06T12:09:57.882Z,37.50
2018-11-06T12:12:31.777Z,38.00
2018-11-06T12:14:59.965Z,39.00
2018-11-06T12:17:28.199Z,39.40
2018-11-06T12:19:56.265Z,39.80
2018-11-06T12:22:24.310Z,40.40
2018-11-06T12:24:52.684Z,40.50
2018-11-06T12:27:20.628Z,40.60
2018-11-06T12:29:48.780Z,40.80
2018-11-06T12:32:16.982Z,40.90
2018-11-06T12:34:45.195Z,41.20
2018-11-06T12:37:13.549Z,41.20
2018-11-06T12:39:41.691Z,41.50
2018-11-06T12:42:14.978Z,41.70
2018-11-06T12:44:43.339Z,42.40
2018-11-06T12:47:11.525Z,43.60
2018-11-06T12:49:39.624Z,44.00
2018-11-06T12:52:07.747Z,44.70
2018-11-06T12:54:36.001Z,45.30
2018-11-06T12:57:04.582Z,45.20
2018-11-06T12:59:32.728Z,44.90
2018-11-06T13:02:00.895Z,45.00
2018-11-06T13:04:29.056Z,45.00
2018-11-06T13:06:57.167Z,44.90
2018-11-06T13:09:25.365Z,45.40
2018-11-06T13:11:58.624Z,46.10
2018-11-06T13:14:26.780Z,46.70
2018-11-06T13:16:54.963Z,47.50
2018-11-06T13:19:23.850Z,47.50
2018-11-06T13:22:06.329Z,48.50
2018-11-06T13:24:34.527Z,48.50
2018-11-06T13:27:02.672Z,48.50
2018-11-06T13:29:30.896Z,49.00
2018-11-06T13:31:59.099Z,48.90
2018-11-06T13:34:27.236Z,49.00
2018-11-06T13:36:55.365Z,49.40
2018-11-06T13:39:23.608Z,49.20
2018-11-06T13:41:51.723Z,49.20
2018-11-06T13:44:20.207Z,49.50
2018-11-06T13:46:48.121Z,49.60
2018-11-06T13:49:16.268Z,49.80
2018-11-06T13:51:44.404Z,49.60
2018-11-06T13:54:12.549Z,49.30
2018-11-06T13:56:40.725Z,49.70
2018-11-06T13:59:08.835Z,49.50
2018-11-06T14:01:37.041Z,49.70
2018-11-06T14:04:05.478Z,50.20
2018-11-06T14:06:34.859Z,50.70
2018-11-06T14:09:03.674Z,51.10
2018-11-06T14:11:31.851Z,51.40
2018-11-06T14:13:59.999Z,51.50
2018-11-06T14:16:28.136Z,51.80
2018-11-06T14:18:56.264Z,51.80
2018-11-06T14:21:24.413Z,52.30
2018-11-06T14:23:52.567Z,53.70
2018-11-06T14:26:20.793Z,54.10
2018-11-06T14:28:48.975Z,54.00
2018-11-06T14:31:17.117Z,53.40
2018-11-06T14:33:45.223Z,54.40
2018-11-06T14:36:13.407Z,55.00
2018-11-06T14:38:41.985Z,54.20
2018-11-06T14:41:10.187Z,54.20
2018-11-06T14:43:38.317Z,54.10
2018-11-06T14:46:07.644Z,54.80
2018-11-06T14:48:35.895Z,54.00
2018-11-06T14:51:04.173Z,54.00
2018-11-06T14:53:32.342Z,54.50
2018-11-06T14:56:00.610Z,54.10
2018-11-06T14:58:28.662Z,54.70
2018-11-06T15:00:56.816Z,54.10
2018-11-06T15:03:25.154Z,55.10
2018-11-06T15:05:53.316Z,55.10
2018-11-06T15:08:21.547Z,55.80
2018-11-06T15:10:49.611Z,56.60
2018-11-06T15:13:27.332Z,57.10
2018-11-06T15:15:55.539Z,57.60
2018-11-06T15:18:24.481Z,57.90
2018-11-06T15:20:53.747Z,58.40
2018-11-06T15:23:22.259Z,58.40
2018-11-06T15:25:50.468Z,58.80
2018-11-06T15:28:18.655Z,59.40
2018-11-06T15:30:46.851Z,59.70
2018-11-06T15:33:16.417Z,60.60
2018-11-06T15:35:44.621Z,61.90
2018-11-06T15:38:12.773Z,62.60
2018-11-06T15:40:44.735Z,62.80
2018-11-06T15:43:13.172Z,62.70
2018-11-06T15:45:41.485Z,63.20
2018-11-06T15:48:09.640Z,62.40
2018-11-06T15:50:37.837Z,62.40
2018-11-06T15:53:06.315Z,63.70
2018-11-06T15:55:34.517Z,63.50
2018-11-06T15:58:03.375Z,64.50
2018-11-06T16:00:31.695Z,63.80
2018-11-06T16:03:00.102Z,65.20
2018-11-06T16:05:28.280Z,65.40
2018-11-06T16:07:56.517Z,65.30
2018-11-06T16:10:24.598Z,67.00
2018-11-06T16:12:53.044Z,67.90
2018-11-06T16:15:21.308Z,68.40
2018-11-06T16:17:49.531Z,68.70
2018-11-06T16:20:19.847Z,68.90
2018-11-06T16:22:48.090Z,68.30
2018-11-06T16:25:17.195Z,68.40
2018-11-06T16:27:45.805Z,68.40
2018-11-06T16:30:15.337Z,68.00
2018-11-06T16:32:43.837Z,67.70
2018-11-06T16:35:14.502Z,67.90
2018-11-06T16:37:44.032Z,67.10
2018-11-06T16:40:12.810Z,68.10
2018-11-06T16:42:42.213Z,68.90
2018-11-06T16:45:14.879Z,69.50
2018-11-06T16:47:43.950Z,69.30
2018-11-06T16:50:13.484Z,70.80
2018-11-06T16:52:41.878Z,71.20
2018-11-06T16:55:10.615Z,71.20
2018-11-06T16:57:40.041Z,71.00
2018-11-06T17:00:10.907Z,71.70
2018-11-06T17:02:39.430Z,71.10
2018-11-06T17:05:08.557Z,71.60
2018-11-06T17:07:36.724Z,71.60
2018-11-06T17:10:07.380Z,71.50
2018-11-06T17:12:40.515Z,71.50
2018-11-06T17:15:13.150Z,71.30
2018-11-06T17:17:41.539Z,72.50
2018-11-06T17:20:11.220Z,72.20
2018-11-06T17:22:39.522Z,73.00
2018-11-06T17:25:10.400Z,73.20
2018-11-06T17:27:38.810Z,73.50
2018-11-06T17:30:08.946Z,74.40
2018-11-06T17:32:38.424Z,74.50
2018-11-06T17:35:08.869Z,74.00
2018-11-06T17:37:37.787Z,74.00
2018-11-06T17:40:10.812Z,74.10
2018-11-06T17:42:39.267Z,76.00
2018-11-06T17:45:10.953Z,75.30
2018-11-06T17:47:40.529Z,76.40
2018-11-06T17:50:10.786Z,74.90
2018-11-06T17:52:39.193Z,74.20
2018-11-06T17:55:10.430Z,74.80
2018-11-06T17:57:38.940Z,74.80
2018-11-06T18:00:11.932Z,75.40
2018-11-06T18:02:40.428Z,76.20
2018-11-06T18:05:09.493Z,76.30
2018-11-06T18:07:38.135Z,76.00
2018-11-06T18:10:08.943Z,76.00
2018-11-06T18:12:42.698Z,76.00
2018-11-06T18:15:10.829Z,76.00
2018-11-06T18:17:39.781Z,75.90
2018-11-06T18:20:09.104Z,77.40
2018-11-06T18:22:37.439Z,77.60
2018-11-06T18:25:06.180Z,76.40
2018-11-06T18:27:34.333Z,78.40
2018-11-06T18:30:02.540Z,76.90
2018-11-06T18:32:30.770Z,77.80
2018-11-06T18:34:58.985Z,78.70
2018-11-06T18:37:27.256Z,77.70
2018-11-06T18:39:55.499Z,77.00
2018-11-06T18:42:23.670Z,77.20
2018-11-06T18:44:51.870Z,77.20
2018-11-06T18:47:20.195Z,78.60
2018-11-06T18:49:48.331Z,80.40
2018-11-06T18:52:16.462Z,80.10
2018-11-06T18:54:44.645Z,79.80
2018-11-06T18:57:12.936Z,80.10
2018-11-06T18:59:41.073Z,79.70
2018-11-06T19:02:09.598Z,80.20
2018-11-06T19:04:37.824Z,80.40
2018-11-06T19:07:06.486Z,79.80
2018-11-06T19:09:34.684Z,81.80
2018-11-06T19:12:02.982Z,81.70
2018-11-06T19:14:31.271Z,81.00
2018-11-06T19:16:59.598Z,80.20
2018-11-06T19:19:27.764Z,79.70
2018-11-06T19:21:56.278Z,81.00
2018-11-06T19:24:24.453Z,81.60
2018-11-06T19:26:53.748Z,81.10
2018-11-06T19:29:21.953Z,81.00
2018-11-06T19:31:50.095Z,80.90
2018-11-06T19:34:19.258Z,81.00
2018-11-06T19:36:47.672Z,80.80
2018-11-06T19:39:15.952Z,80.80
2018-11-06T19:41:44.173Z,80.80
2018-11-06T19:44:12.431Z,80.80
2018-11-06T19:46:40.806Z,80.80
2018-11-06T19:49:08.956Z,81.30
2018-11-06T19:51:37.263Z,80.70
2018-11-06T19:54:05.535Z,81.20
2018-11-06T19:56:33.673Z,81.20
2018-11-06T19:59:01.903Z,81.10
2018-11-06T20:01:30.876Z,81.20
2018-11-06T20:03:59.066Z,81.70
2018-11-06T20:06:27.296Z,80.50
2018-11-06T20:08:55.502Z,81.10
2018-11-06T20:11:23.764Z,81.10
2018-11-06T20:13:51.882Z,81.00
2018-11-06T20:16:20.104Z,80.30
2018-11-06T20:18:48.558Z,83.60
2018-11-06T20:21:16.961Z,83.90
2018-11-06T20:23:45.227Z,83.90
2018-11-06T20:26:13.512Z,84.70
2018-11-06T20:28:41.897Z,85.90
2018-11-06T20:31:10.110Z,85.20
2018-11-06T20:33:38.488Z,85.10
2018-11-06T20:36:06.586Z,84.90
2018-11-06T20:38:34.802Z,84.00
2018-11-06T20:41:03.621Z,82.90
2018-11-06T20:43:31.850Z,83.20
2018-11-06T20:46:00.061Z,85.70
2018-11-06T20:48:28.249Z,86.40
2018-11-06T20:50:56.467Z,87.20
2018-11-06T20:53:24.768Z,87.90
2018-11-06T20:55:53.052Z,87.00
2018-11-06T20:58:21.244Z,89.90
2018-11-06T21:00:49.369Z,90.10
2018-11-06T21:03:18.595Z,90.10
2018-11-06T21:05:46.901Z,88.80
2018-11-06T21:08:15.120Z,89.10
2018-11-06T21:10:43.331Z,87.90
2018-11-06T21:13:11.625Z,86.10
2018-11-06T21:15:39.768Z,85.90
2018-11-06T21:18:08.093Z,85.60
2018-11-06T21:20:36.969Z,83.30
2018-11-06T21:23:05.242Z,83.70
2018-11-06T21:25:33.542Z,82.80
2018-11-06T21:28:01.554Z,82.80
2018-11-06T21:30:29.682Z,82.30
2018-11-06T21:32:58.036Z,82.70
2018-11-06T21:35:26.261Z,82.70
2018-11-06T21:37:54.382Z,83.10
2018-11-06T21:40:22.616Z,84.30
2018-11-06T21:42:51.043Z,85.60
2018-11-06T21:45:19.349Z,85.60
2018-11-06T21:47:48.687Z,85.30
2018-11-06T21:50:17.176Z,84.50
2018-11-06T21:52:45.582Z,85.20
2018-11-06T21:55:14.900Z,84.70
2018-11-06T21:57:43.157Z,85.20
2018-11-06T22:00:13.505Z,85.30
2018-11-06T22:02:41.673Z,85.30
2018-11-06T22:05:11.258Z,84.10
2018-11-06T22:07:39.980Z,83.80
2018-11-06T22:10:10.393Z,84.00
2018-11-06T22:12:39.208Z,84.70
2018-11-06T22:15:08.890Z,84.80
2018-11-06T22:17:38.602Z,84.70
2018-11-06T22:20:08.693Z,85.30
2018-11-06T22:22:37.047Z,84.80
2018-11-06T22:25:05.731Z,85.30
2018-11-06T22:27:33.966Z,85.30
2018-11-06T22:30:02.138Z,84.10
2018-11-06T22:32:30.556Z,84.10
2018-11-06T22:34:59.088Z,84.10
2018-11-06T22:37:27.272Z,84.70
2018-11-06T22:39:55.350Z,85.20
2018-11-06T22:42:23.784Z,85.20
2018-11-06T22:44:51.984Z,85.20
2018-11-06T22:47:20.080Z,85.20
2018-11-06T22:49:48.193Z,85.20
2018-11-06T22:52:26.110Z,84.80
2018-11-06T22:54:54.262Z,85.20
2018-11-06T22:57:22.437Z,85.30
2018-11-06T22:59:50.545Z,85.20
2018-11-06T23:02:18.757Z,85.00
2018-11-06T23:04:46.920Z,84.00
2018-11-06T23:07:20.760Z,84.40
2018-11-06T23:09:48.884Z,83.20
2018-11-06T23:12:17.091Z,83.10
2018-11-06T23:14:45.256Z,82.70
2018-11-06T23:17:13.361Z,83.20
2018-11-06T23:19:41.546Z,83.00
2018-11-06T23:22:09.742Z,83.10
2018-11-06T23:24:37.856Z,82.80
2018-11-06T23:27:06.029Z,83.30
2018-11-06T23:29:34.195Z,82.60
2018-11-06T23:32:02.810Z,82.80
2018-11-06T23:34:30.951Z,82.60
2018-11-06T23:36:59.120Z,83.20
2018-11-06T23:39:27.293Z,83.10
2018-11-06T23:41:55.418Z,83.30
2018-11-06T23:44:23.740Z,82.90
2018-11-06T23:46:52.013Z,83.80
2018-11-06T23:49:20.279Z,84.00
2018-11-06T23:51:48.563Z,84.50
2018-11-06T23:54:17.343Z,84.60
2018-11-06T23:56:45.475Z,85.60
2018-11-06T23:59:13.621Z,84.60
